createdAt,value
2022-12-05T00:01:36.131Z,258.47
2022-12-05T00:04:05.912Z,267.70
2022-12-05T00:06:33.963Z,294.00
2022-12-05T00:09:01.178Z,256.97
2022-12-05T00:11:35.341Z,261.33
2022-12-05T00:14:02.681Z,264.87
2022-12-05T00:16:31.264Z,280.90
2022-12-05T00:19:00.128Z,272.57
2022-12-05T00:21:28.676Z,264.17
2022-12-05T00:23:56.346Z,272.50
2022-12-05T00:26:23.456Z,269.63
2022-12-05T00:28:51.551Z,276.47
2022-12-05T00:31:20.276Z,249.03
2022-12-05T00:33:47.644Z,281.57
2022-12-05T00:36:16.920Z,275.20
2022-12-05T00:38:44.159Z,258.37
2022-12-05T00:41:15.536Z,269.47
2022-12-05T00:43:42.809Z,266.47
2022-12-05T00:46:12.134Z,290.17
2022-12-05T00:48:39.506Z,280.80
2022-12-05T00:51:09.264Z,281.40
2022-12-05T00:53:36.254Z,278.37
2022-12-05T00:56:04.083Z,258.93
2022-12-05T00:58:31.387Z,260.20
2022-12-05T01:00:58.679Z,264.93
2022-12-05T01:03:26.061Z,273.90
2022-12-05T01:05:53.073Z,258.97
2022-12-05T01:08:20.084Z,262.20
2022-12-05T01:10:53.356Z,253.43
2022-12-05T01:13:20.317Z,255.07
2022-12-05T01:15:47.297Z,258.33
2022-12-05T01:18:14.352Z,237.67
2022-12-05T01:20:41.843Z,260.97
2022-12-05T01:23:08.827Z,266.83
2022-12-05T01:25:35.905Z,260.40
2022-12-05T01:28:02.813Z,262.23
2022-12-05T01:30:29.781Z,253.33
2022-12-05T01:32:56.732Z,267.20
2022-12-05T01:35:23.692Z,259.40
2022-12-05T01:37:51.181Z,253.07
2022-12-05T01:40:18.077Z,242.80
2022-12-05T01:42:44.987Z,285.97
2022-12-05T01:45:16.736Z,245.77
2022-12-05T01:47:44.128Z,252.03
2022-12-05T01:50:12.780Z,233.40
2022-12-05T01:52:39.913Z,245.40
2022-12-05T01:55:11.630Z,243.40
2022-12-05T01:57:38.774Z,242.57
2022-12-05T02:00:10.151Z,265.23
2022-12-05T02:02:37.497Z,267.57
2022-12-05T02:05:08.603Z,241.70
2022-12-05T02:07:38.229Z,252.70
2022-12-05T02:10:06.697Z,242.60
2022-12-05T02:12:34.786Z,246.43
2022-12-05T02:15:18.240Z,248.67
2022-12-05T02:17:54.002Z,221.80
2022-12-05T02:20:30.317Z,243.10
2022-12-05T02:23:27.404Z,237.27
2022-12-05T02:26:18.872Z,238.97
2022-12-05T02:29:20.353Z,267.53
2022-12-05T02:31:53.282Z,255.90
2022-12-05T02:34:24.957Z,251.50
2022-12-05T02:37:00.162Z,239.17
2022-12-05T02:39:35.350Z,259.67
2022-12-05T02:42:09.118Z,246.40
2022-12-05T02:44:41.051Z,220.93
2022-12-05T02:47:12.182Z,268.23
2022-12-05T02:49:40.743Z,246.90
2022-12-05T02:52:13.960Z,255.13
2022-12-05T02:54:44.508Z,247.80
2022-12-05T02:57:13.105Z,238.27
2022-12-05T02:59:40.073Z,225.03
2022-12-05T03:02:21.616Z,246.43
2022-12-05T03:04:48.275Z,226.00
2022-12-05T03:07:16.986Z,241.97
2022-12-05T03:09:47.901Z,234.83
2022-12-05T03:12:18.223Z,207.77
2022-12-05T03:14:48.630Z,213.37
2022-12-05T03:17:21.242Z,213.80
2022-12-05T03:19:55.335Z,214.37
2022-12-05T03:22:30.022Z,232.83
2022-12-05T03:24:56.974Z,213.33
2022-12-05T03:27:30.216Z,181.03
2022-12-05T03:30:01.681Z,196.70
2022-12-05T03:32:36.544Z,175.60
2022-12-05T03:35:07.961Z,169.93
2022-12-05T03:37:43.975Z,185.73
2022-12-05T03:40:21.163Z,176.17
2022-12-05T03:42:54.568Z,177.47
2022-12-05T03:45:27.435Z,162.13
2022-12-05T03:48:01.396Z,168.23
2022-12-05T03:50:29.484Z,168.93
2022-12-05T03:55:53.252Z,164.27
2022-12-05T03:58:26.462Z,184.50
2022-12-05T04:00:56.327Z,151.03
2022-12-05T04:03:38.348Z,158.37
2022-12-05T04:06:13.557Z,164.53
2022-12-05T04:08:45.367Z,172.33
2022-12-05T04:11:15.671Z,178.80
2022-12-05T04:13:45.796Z,174.80
2022-12-05T04:16:34.767Z,165.63
2022-12-05T04:19:08.857Z,169.83
2022-12-05T04:21:42.759Z,190.17
2022-12-05T04:24:33.870Z,148.07
2022-12-05T04:27:10.353Z,165.80
2022-12-05T04:29:44.404Z,167.90
2022-12-05T04:32:13.325Z,163.40
2022-12-05T04:34:44.800Z,153.50
2022-12-05T04:37:15.943Z,144.73
2022-12-05T04:39:47.058Z,150.17
2022-12-05T04:42:18.154Z,161.77
2022-12-05T04:44:49.439Z,144.30
2022-12-05T04:47:19.321Z,147.93
2022-12-05T04:49:54.293Z,135.47
2022-12-05T04:52:22.081Z,136.50
2022-12-05T04:54:54.521Z,133.80
2022-12-05T04:57:25.521Z,140.97
2022-12-05T04:59:52.757Z,126.70
2022-12-05T05:02:24.468Z,127.30
2022-12-05T05:04:54.867Z,127.60
2022-12-05T05:07:21.816Z,126.17
2022-12-05T05:09:48.855Z,116.17
2022-12-05T05:12:18.893Z,122.83
2022-12-05T05:14:46.203Z,140.67
2022-12-05T05:17:13.237Z,124.40
2022-12-05T05:19:40.183Z,117.43
2022-12-05T05:22:07.477Z,109.23
2022-12-05T05:24:34.412Z,122.30
2022-12-05T05:27:01.343Z,107.20
2022-12-05T05:29:28.002Z,94.43
2022-12-05T05:31:54.966Z,90.70
2022-12-05T05:34:21.880Z,110.97
2022-12-05T05:36:51.535Z,97.70
2022-12-05T05:39:18.850Z,93.93
2022-12-05T05:41:45.872Z,88.93
2022-12-05T05:44:12.825Z,95.13
2022-12-05T05:46:39.946Z,85.70
2022-12-05T05:49:06.923Z,84.30
2022-12-05T05:51:33.842Z,83.03
2022-12-05T05:54:00.805Z,74.20
2022-12-05T05:56:28.434Z,68.37
2022-12-05T05:58:56.562Z,81.70
2022-12-05T06:01:23.695Z,69.77
2022-12-05T06:03:50.961Z,79.77
2022-12-05T06:06:18.660Z,68.97
2022-12-05T06:08:45.713Z,83.60
2022-12-05T06:11:17.766Z,74.70
2022-12-05T06:13:49.003Z,73.43
2022-12-05T06:16:17.275Z,72.80
2022-12-05T06:18:44.237Z,71.03
2022-12-05T06:21:15.993Z,73.23
2022-12-05T06:23:43.422Z,65.70
2022-12-05T06:26:11.783Z,74.50
2022-12-05T06:28:41.898Z,66.47
2022-12-05T06:31:10.583Z,70.27
2022-12-05T06:33:37.674Z,72.70
2022-12-05T06:36:09.025Z,62.53
2022-12-05T06:38:40.550Z,58.77
2022-12-05T06:41:11.036Z,62.07
2022-12-05T06:43:38.040Z,57.63
2022-12-05T06:46:05.217Z,71.60
2022-12-05T06:48:32.600Z,63.37
2022-12-05T06:50:59.704Z,63.70
2022-12-05T06:53:26.824Z,67.43
2022-12-05T06:55:56.985Z,64.53
2022-12-05T06:58:24.085Z,68.47
2022-12-05T07:01:09.332Z,61.33
2022-12-05T07:03:37.605Z,69.87
2022-12-05T07:06:05.696Z,79.07
2022-12-05T07:08:33.348Z,72.83
2022-12-05T07:11:00.326Z,73.33
2022-12-05T07:13:27.300Z,70.83
2022-12-05T07:15:54.337Z,67.30
2022-12-05T07:18:21.074Z,66.97
2022-12-05T07:21:11.655Z,73.33
2022-12-05T07:23:39.575Z,77.90
2022-12-05T07:26:07.259Z,72.33
2022-12-05T07:28:34.589Z,76.80
2022-12-05T07:31:01.738Z,73.63
2022-12-05T07:33:28.934Z,69.87
2022-12-05T07:36:01.139Z,80.70
2022-12-05T07:38:28.255Z,68.17
2022-12-05T07:40:55.173Z,69.77
2022-12-05T07:43:22.177Z,77.43
2022-12-05T07:45:49.304Z,65.97
2022-12-05T07:48:18.811Z,64.67
2022-12-05T07:50:48.936Z,72.47
2022-12-05T07:53:16.231Z,66.97
2022-12-05T07:55:43.150Z,70.70
2022-12-05T07:58:10.058Z,66.43
2022-12-05T08:00:36.993Z,61.03
2022-12-05T08:03:03.934Z,53.53
2022-12-05T08:05:30.894Z,62.13
2022-12-05T08:07:57.964Z,70.10
2022-12-05T08:10:25.735Z,60.20
2022-12-05T08:12:52.704Z,63.17
2022-12-05T08:15:19.616Z,64.63
2022-12-05T08:17:46.555Z,59.23
2022-12-05T08:20:13.980Z,70.03
2022-12-05T08:22:40.956Z,57.87
2022-12-05T08:25:08.541Z,70.57
2022-12-05T08:27:36.071Z,61.77
2022-12-05T08:30:03.147Z,64.77
2022-12-05T08:32:30.094Z,68.00
2022-12-05T08:34:57.025Z,68.30
2022-12-05T08:37:23.982Z,67.53
2022-12-05T08:39:50.910Z,66.43
2022-12-05T08:42:17.845Z,62.13
2022-12-05T08:44:45.165Z,63.27
2022-12-05T08:47:12.175Z,64.00
2022-12-05T08:49:39.612Z,61.60
2022-12-05T08:52:06.579Z,58.03
2022-12-05T08:54:33.497Z,54.37
2022-12-05T08:57:00.499Z,62.23
2022-12-05T08:59:27.489Z,52.60
2022-12-05T09:01:54.848Z,57.00
2022-12-05T09:04:21.870Z,64.93
2022-12-05T09:06:48.835Z,59.07
2022-12-05T09:09:16.499Z,54.87
2022-12-05T09:11:48.152Z,49.73
2022-12-05T09:14:15.420Z,51.83
2022-12-05T09:16:44.549Z,55.40
2022-12-05T09:19:13.732Z,59.87
2022-12-05T09:21:41.339Z,55.23
2022-12-05T09:24:08.338Z,55.23
2022-12-05T09:26:35.414Z,59.20
2022-12-05T09:29:02.718Z,53.07
2022-12-05T09:31:29.951Z,53.60
2022-12-05T09:33:56.985Z,52.90
2022-12-05T09:36:26.071Z,56.70
2022-12-05T09:38:53.170Z,48.97
2022-12-05T09:42:07.222Z,49.63
2022-12-05T09:44:47.626Z,50.83
2022-12-05T09:47:23.624Z,49.37
2022-12-05T09:49:53.769Z,51.60
2022-12-05T09:52:26.620Z,49.30
2022-12-05T09:54:53.577Z,53.20
2022-12-05T09:57:33.646Z,56.67
2022-12-05T10:00:03.028Z,46.87
2022-12-05T10:02:40.272Z,47.83
2022-12-05T10:05:11.213Z,50.63
2022-12-05T10:07:46.870Z,45.90
2022-12-05T10:10:28.456Z,56.00
2022-12-05T10:13:10.050Z,54.67
2022-12-05T10:15:45.397Z,50.70
2022-12-05T10:18:23.600Z,48.83
2022-12-05T10:20:55.041Z,43.03
2022-12-05T10:23:55.462Z,48.23
2022-12-05T10:26:16.178Z,49.67
2022-12-05T10:28:50.816Z,58.27
2022-12-05T10:31:25.556Z,51.37
2022-12-05T10:34:01.057Z,50.97
2022-12-05T10:36:27.998Z,49.10
2022-12-05T10:38:56.716Z,49.57
2022-12-05T10:41:24.288Z,43.30
2022-12-05T10:43:51.345Z,53.87
2022-12-05T10:46:18.942Z,46.20
2022-12-05T10:48:46.162Z,51.03
2022-12-05T10:51:16.829Z,51.20
2022-12-05T10:53:45.652Z,54.10
2022-12-05T10:56:39.917Z,48.00
2022-12-05T10:59:07.978Z,50.30
2022-12-05T11:01:37.810Z,49.50
2022-12-05T11:04:17.759Z,53.00
2022-12-05T11:07:00.383Z,55.47
2022-12-05T11:09:29.866Z,52.90
2022-12-05T11:12:21.895Z,50.33
2022-12-05T11:15:00.624Z,53.30
2022-12-05T11:17:32.885Z,53.60
2022-12-05T11:19:59.963Z,50.60
2022-12-05T11:22:32.653Z,54.57
2022-12-05T11:24:59.958Z,48.97
2022-12-05T11:27:30.393Z,55.63
2022-12-05T11:30:00.881Z,51.97
2022-12-05T11:32:29.807Z,52.00
2022-12-05T11:35:08.448Z,49.13
2022-12-05T11:37:40.185Z,64.53
2022-12-05T11:40:15.039Z,60.17
2022-12-05T11:42:58.069Z,53.50
2022-12-05T11:45:40.763Z,52.37
2022-12-05T11:48:29.104Z,50.57
2022-12-05T11:51:09.877Z,64.27
2022-12-05T11:54:02.205Z,67.77
2022-12-05T11:56:37.622Z,53.73
2022-12-05T11:59:21.762Z,73.30
2022-12-05T12:01:55.924Z,64.37
2022-12-05T12:04:50.823Z,64.70
2022-12-05T12:07:35.834Z,58.37
2022-12-05T12:10:17.900Z,66.17
2022-12-05T12:12:54.192Z,61.00
2022-12-05T12:15:39.309Z,64.40
2022-12-05T12:18:15.942Z,70.90
2022-12-05T12:20:55.916Z,67.17
2022-12-05T12:23:40.263Z,77.47
2022-12-05T12:26:11.709Z,67.70
2022-12-05T12:28:45.877Z,75.33
2022-12-05T12:31:35.146Z,62.30
2022-12-05T12:34:11.639Z,77.10
2022-12-05T12:36:45.703Z,80.20
2022-12-05T12:39:24.025Z,77.03
2022-12-05T12:42:17.657Z,89.77
2022-12-05T12:45:16.817Z,81.50
2022-12-05T12:48:04.401Z,93.83
2022-12-05T12:50:32.691Z,103.47
2022-12-05T12:53:21.022Z,102.57
2022-12-05T12:55:53.953Z,108.43
2022-12-05T12:58:39.999Z,102.17
2022-12-05T13:01:15.336Z,93.90
2022-12-05T13:03:51.697Z,106.03
2022-12-05T13:06:24.648Z,94.33
2022-12-05T13:08:54.936Z,90.87
2022-12-05T13:11:22.749Z,97.07
2022-12-05T13:13:54.570Z,102.83
2022-12-05T13:16:25.984Z,94.97
2022-12-05T13:18:55.077Z,85.37
2022-12-05T13:21:22.433Z,104.03
2022-12-05T13:23:54.286Z,103.37
2022-12-05T13:26:23.075Z,103.43
2022-12-05T13:28:53.193Z,96.40
2022-12-05T13:31:33.980Z,112.70
2022-12-05T13:34:01.359Z,102.63
2022-12-05T13:36:46.453Z,110.90
2022-12-05T13:39:39.947Z,102.03
2022-12-05T13:42:20.338Z,112.07
2022-12-05T13:44:50.162Z,92.90
2022-12-05T13:47:29.281Z,110.53
2022-12-05T13:50:02.640Z,109.60
2022-12-05T13:52:31.603Z,113.23
2022-12-05T13:55:03.298Z,107.17
2022-12-05T13:57:50.338Z,114.60
2022-12-05T14:00:23.398Z,124.47
2022-12-05T14:03:03.741Z,110.80
2022-12-05T14:05:45.035Z,118.87
2022-12-05T14:08:45.067Z,120.83
2022-12-05T14:11:12.289Z,120.77
2022-12-05T14:13:41.866Z,127.33
2022-12-05T14:16:45.317Z,118.13
2022-12-05T14:19:51.919Z,128.27
2022-12-05T14:22:44.139Z,137.57
2022-12-05T14:25:28.129Z,127.80
2022-12-05T14:28:00.355Z,124.43
2022-12-05T14:30:34.768Z,131.00
2022-12-05T14:33:02.419Z,138.23
2022-12-05T14:35:31.396Z,143.90
2022-12-05T14:38:02.596Z,145.53
2022-12-05T14:40:33.167Z,139.93
2022-12-05T14:43:02.427Z,145.53
2022-12-05T14:45:33.581Z,157.93
2022-12-05T14:48:02.539Z,159.37
2022-12-05T14:50:42.278Z,155.57
2022-12-05T14:53:30.827Z,172.43
2022-12-05T14:56:05.135Z,151.27
2022-12-05T14:58:36.998Z,163.10
2022-12-05T15:01:08.310Z,169.73
2022-12-05T15:03:38.075Z,154.73
2022-12-05T15:06:10.462Z,181.50
2022-12-05T15:08:46.517Z,172.60
2022-12-05T15:11:27.391Z,201.40
2022-12-05T15:13:58.521Z,283.90
2022-12-05T15:16:29.246Z,223.83
2022-12-05T15:19:00.462Z,185.80
2022-12-05T15:21:32.092Z,184.37
2022-12-05T15:24:01.404Z,179.20
2022-12-05T15:26:46.771Z,178.17
2022-12-05T15:29:22.929Z,196.60
2022-12-05T15:31:51.783Z,182.40
2022-12-05T15:34:24.018Z,182.70
2022-12-05T15:36:57.172Z,210.80
2022-12-05T15:39:27.809Z,187.23
2022-12-05T15:41:56.069Z,172.80
2022-12-05T15:44:32.820Z,186.60
2022-12-05T15:47:03.148Z,183.07
2022-12-05T15:49:30.109Z,177.23
2022-12-05T15:52:02.702Z,173.97
2022-12-05T15:54:33.552Z,184.13
2022-12-05T15:57:04.753Z,179.43
2022-12-05T15:59:36.430Z,182.50
2022-12-05T16:02:09.919Z,187.80
2022-12-05T16:04:41.006Z,170.77
2022-12-05T16:07:12.109Z,173.57
2022-12-05T16:09:41.510Z,201.50
2022-12-05T16:12:24.358Z,192.80
2022-12-05T16:15:01.622Z,210.20
2022-12-05T16:17:36.277Z,188.63
2022-12-05T16:20:30.904Z,238.93
2022-12-05T16:23:02.095Z,187.57
2022-12-05T16:25:33.044Z,201.47
2022-12-05T16:28:06.120Z,189.17
2022-12-05T16:30:34.519Z,182.30
2022-12-05T16:33:04.204Z,207.30
2022-12-05T16:35:39.403Z,186.87
2022-12-05T16:38:12.581Z,211.80
2022-12-05T16:40:50.486Z,198.03
2022-12-05T16:43:20.766Z,203.80
2022-12-05T16:45:48.860Z,202.30
2022-12-05T16:48:19.588Z,199.10
2022-12-05T16:50:46.598Z,200.93
2022-12-05T16:53:26.751Z,170.70
2022-12-05T16:55:54.454Z,203.30
2022-12-05T16:58:24.131Z,193.20
2022-12-05T17:00:51.402Z,195.90
2022-12-05T17:03:34.004Z,204.37
2022-12-05T17:06:02.427Z,204.77
2022-12-05T17:08:29.987Z,224.10
2022-12-05T17:10:58.350Z,216.67
2022-12-05T17:13:25.729Z,212.77
2022-12-05T17:15:52.872Z,200.00
2022-12-05T17:18:24.201Z,209.00
2022-12-05T17:20:55.444Z,200.30
2022-12-05T17:23:22.368Z,201.03
2022-12-05T17:25:51.195Z,199.47
2022-12-05T17:28:19.417Z,186.37
2022-12-05T17:30:50.603Z,178.60
2022-12-05T17:33:20.284Z,194.50
2022-12-05T17:35:47.246Z,186.10
2022-12-05T17:38:14.494Z,195.97
2022-12-05T17:40:43.936Z,200.90
2022-12-05T17:43:14.484Z,179.73
2022-12-05T17:45:42.984Z,185.17
2022-12-05T17:48:12.542Z,222.20
2022-12-05T17:50:40.204Z,171.77
2022-12-05T17:53:14.081Z,195.30
2022-12-05T17:55:42.304Z,191.17
2022-12-05T17:58:09.407Z,190.13
2022-12-05T18:00:36.481Z,194.37
2022-12-05T18:03:04.327Z,172.57
2022-12-05T18:05:34.043Z,184.27
2022-12-05T18:08:01.081Z,198.70
2022-12-05T18:10:28.151Z,219.10
2022-12-05T18:12:55.195Z,212.70
2022-12-05T18:15:22.393Z,229.70
2022-12-05T18:17:55.542Z,212.30
2022-12-05T18:20:24.177Z,211.37
2022-12-05T18:22:52.095Z,216.93
2022-12-05T18:25:19.252Z,218.00
2022-12-05T18:27:46.242Z,206.63
2022-12-05T18:30:13.899Z,206.57
2022-12-05T18:32:40.920Z,224.93
2022-12-05T18:35:12.864Z,221.17
2022-12-05T18:37:40.683Z,237.43
2022-12-05T18:40:09.472Z,228.70
2022-12-05T18:42:36.801Z,229.53
2022-12-05T18:45:04.614Z,211.23
2022-12-05T18:47:31.708Z,203.67
2022-12-05T18:50:00.299Z,175.03
2022-12-05T18:52:27.278Z,178.37
2022-12-05T18:55:15.774Z,161.30
2022-12-05T18:57:42.380Z,174.10
2022-12-05T19:00:10.474Z,162.73
2022-12-05T19:02:38.774Z,152.77
2022-12-05T19:05:06.024Z,154.83
2022-12-05T19:07:33.095Z,166.27
2022-12-05T19:10:00.818Z,148.10
2022-12-05T19:12:27.778Z,164.23
2022-12-05T19:14:54.832Z,147.37
2022-12-05T19:17:22.405Z,155.47
2022-12-05T19:19:49.351Z,143.87
2022-12-05T19:22:16.413Z,143.90
2022-12-05T19:24:43.387Z,137.63
2022-12-05T19:27:10.684Z,128.70
2022-12-05T19:29:39.104Z,142.47
2022-12-05T19:32:06.901Z,142.03
2022-12-05T19:34:34.372Z,153.80
2022-12-05T19:37:01.701Z,133.23
2022-12-05T19:39:30.232Z,139.10
2022-12-05T19:41:58.640Z,147.70
2022-12-05T19:44:26.181Z,133.13
2022-12-05T19:46:54.251Z,162.30
2022-12-05T19:49:22.384Z,140.33
2022-12-05T19:51:49.552Z,129.90
2022-12-05T19:54:17.472Z,123.27
2022-12-05T19:56:44.596Z,138.60
2022-12-05T19:59:14.485Z,159.07
2022-12-05T20:01:42.048Z,145.37
2022-12-05T20:04:10.385Z,120.00
2022-12-05T20:06:50.668Z,117.27
2022-12-05T20:09:19.844Z,137.13
2022-12-05T20:11:54.141Z,128.60
2022-12-05T20:14:21.984Z,133.30
2022-12-05T20:16:49.471Z,116.60
2022-12-05T20:19:16.448Z,136.50
2022-12-05T20:21:43.823Z,130.90
2022-12-05T20:24:11.045Z,160.27
2022-12-05T20:26:39.831Z,170.47
2022-12-05T20:29:07.043Z,175.93
2022-12-05T20:31:34.929Z,168.27
2022-12-05T20:34:02.814Z,180.07
2022-12-05T20:36:31.077Z,165.77
2022-12-05T20:39:00.572Z,165.90
2022-12-05T20:41:27.817Z,123.83
2022-12-05T20:43:56.673Z,144.40
2022-12-05T20:46:24.867Z,126.17
2022-12-05T20:48:52.724Z,115.50
2022-12-05T20:51:22.335Z,131.90
2022-12-05T20:53:49.843Z,136.33
2022-12-05T20:56:18.100Z,127.00
2022-12-05T20:58:46.415Z,92.80
2022-12-05T21:01:14.383Z,126.67
2022-12-05T21:03:41.646Z,115.47
2022-12-05T21:06:09.834Z,94.03
2022-12-05T21:08:37.581Z,109.13
2022-12-05T21:11:05.669Z,87.40
2022-12-05T21:13:32.848Z,82.37
2022-12-05T21:16:02.171Z,88.87
2022-12-05T21:18:29.319Z,86.83
2022-12-05T21:20:57.233Z,84.27
2022-12-05T21:23:24.589Z,71.30
2022-12-05T21:25:52.094Z,77.30
2022-12-05T21:28:24.524Z,75.47
2022-12-05T21:30:51.451Z,85.20
2022-12-05T21:33:18.366Z,72.13
2022-12-05T21:35:54.290Z,68.93
2022-12-05T21:38:21.316Z,62.20
2022-12-05T21:40:48.645Z,69.60
2022-12-05T21:43:16.466Z,78.20
2022-12-05T21:45:46.649Z,66.50
2022-12-05T21:48:16.186Z,66.97
2022-12-05T21:50:43.347Z,57.50
2022-12-05T21:53:10.621Z,72.93
2022-12-05T21:55:38.850Z,66.47
2022-12-05T21:58:05.895Z,67.80
2022-12-05T22:00:33.200Z,62.13
2022-12-05T22:03:00.156Z,65.37
2022-12-05T22:05:27.105Z,63.03
2022-12-05T22:07:54.100Z,57.23
2022-12-05T22:10:21.079Z,53.43
2022-12-05T22:12:47.981Z,56.80
2022-12-05T22:15:14.863Z,56.30
2022-12-05T22:17:42.241Z,58.93
2022-12-05T22:20:09.253Z,48.90
2022-12-05T22:22:36.405Z,56.63
2022-12-05T22:25:03.994Z,59.20
2022-12-05T22:27:30.909Z,60.77
2022-12-05T22:29:57.939Z,62.23
2022-12-05T22:32:24.923Z,53.47
2022-12-05T22:34:52.572Z,53.53
2022-12-05T22:37:19.433Z,71.73
2022-12-05T22:39:46.323Z,57.90
2022-12-05T22:42:13.187Z,53.50
2022-12-05T22:44:40.051Z,59.47
2022-12-05T22:47:06.983Z,60.67
2022-12-05T22:49:34.039Z,67.70
2022-12-05T22:52:01.299Z,69.57
2022-12-05T22:54:30.346Z,55.87
2022-12-05T22:56:57.453Z,68.13
2022-12-05T22:59:24.869Z,63.70
2022-12-05T23:01:52.062Z,63.53
2022-12-05T23:04:19.491Z,61.83
2022-12-05T23:06:46.628Z,60.93
2022-12-05T23:09:13.952Z,66.70
2022-12-05T23:11:40.865Z,66.50
2022-12-05T23:14:07.744Z,63.17
2022-12-05T23:16:34.820Z,63.07
2022-12-05T23:19:04.728Z,62.93
2022-12-05T23:21:33.845Z,62.70
2022-12-05T23:24:02.361Z,63.30
2022-12-05T23:26:32.439Z,56.93
2022-12-05T23:28:59.381Z,59.40
2022-12-05T23:31:26.475Z,55.13
2022-12-05T23:33:54.499Z,59.80
2022-12-05T23:36:25.736Z,56.00
2022-12-05T23:38:52.743Z,83.37
2022-12-05T23:41:21.065Z,79.67
2022-12-05T23:43:50.381Z,88.63
2022-12-05T23:46:19.799Z,82.30
2022-12-05T23:48:46.749Z,80.70
2022-12-05T23:51:15.176Z,54.27
2022-12-05T23:53:43.901Z,61.20
2022-12-05T23:56:13.019Z,63.63
2022-12-05T23:58:40.268Z,51.07
